Aviation Forecast PDF Print E-mail

 met_logo

NATIONAL METEOROLOGICAL SERVICE OF BELIZE

AVIATION AREA FORECAST

NATIONAL METEOROLOGICAL SERVICE OF BELIZE

Area Forecast for the Country of Belize


For the period from:

1200  17  APRIL  2014

to

2400  17  APRIL  2014

All Heights in the forecast are above sea level. PS= Positive, MS= Minus. All times are UTC.


A.

SPECIAL FEATURES of the METEOROLOGICAL SITUATION

RELATIVELY MOIST AND UNSTABLE CONDITIONS EXIST.  

B.

HEIGHT (Ft)

WIND (True Degrees and Knots)

TEMPERATURE (°C)

Surface

08010

PS31-34

2,000

10510

PS20

5,000

10520

PS16

10,000

09010

PS09


C.

CLOUDS (Amount, Type, Ceiling and Top (optional))

ISOL/FEW CB BASES 1,000-1,500FT.; TOPS NEAR 30,000FT.(MAINLY AND NORTH)

SCT/BKN CU BASES 2,000-2,800FT.; TOPS 8,000-10,000FT.

 SCT/BKN SC BASES LYRD 3,500-4,500FT.


D.

SURFACE VISIBILITY:   REDUCED TO 5-8KM IN TSRA / SHRA AND 400M IN HILL FOG.;OTHERWISE GREATER THAN 10KM


E.

WEATHER: CLOUDY SPELLS WITH A FEW SHOWERS AND POSSIBLE ISOLATED THUNDERSTORMS MAINLY OVER THE NORTH AND ALONG COASTAL AREAS. HILL FOG INLAND.   

Remarks, Warnings, Turbulence

Barometric Changes

LOW CLOUDS COVERING HILLS

RISING.

G.

OUTLOOK:

TO 12Z 18 APRIL -

CLOUDY SPELLS WITH A FEW SHOWERS. 

H.

TAF  MZBZ

171100Z 1712/1812 08010KT 9999 SCT023 SCT045 PROB30 TEMPO 1712/1722 5000 SHRA BKN015=


I.

Meteorological Office:

BELIZE

Issued at:

1140Z 17 APRIL 2014

Forecaster:

Wellington